createdAt,value
2018-01-06T00:00:03.584Z,5.86
2018-01-06T00:01:03.578Z,5.86
2018-01-06T00:02:03.572Z,5.82
2018-01-06T00:03:03.567Z,5.80
2018-01-06T00:04:03.559Z,5.80
2018-01-06T00:05:03.554Z,5.73
2018-01-06T00:06:03.548Z,5.80
2018-01-06T00:07:03.542Z,5.76
2018-01-06T00:08:03.536Z,5.69
2018-01-06T00:09:03.530Z,5.73
2018-01-06T00:10:03.524Z,5.64
2018-01-06T00:11:03.519Z,5.75
2018-01-06T00:12:03.513Z,5.76
2018-01-06T00:13:03.507Z,5.86
2018-01-06T00:14:03.501Z,5.80
2018-01-06T00:15:03.494Z,5.76
2018-01-06T00:16:03.488Z,5.79
2018-01-06T00:17:03.481Z,5.80
2018-01-06T00:18:03.476Z,5.76
2018-01-06T00:19:03.469Z,5.80
2018-01-06T00:20:03.464Z,5.79
2018-01-06T00:21:03.457Z,5.79
2018-01-06T00:22:03.452Z,5.64
2018-01-06T00:23:03.445Z,5.71
2018-01-06T00:24:03.439Z,5.83
2018-01-06T00:25:03.432Z,5.79
2018-01-06T00:26:03.427Z,5.93
2018-01-06T00:27:03.421Z,5.97
2018-01-06T00:28:03.415Z,5.97
2018-01-06T00:29:03.409Z,6.16
2018-01-06T00:30:03.403Z,6.17
2018-01-06T00:31:03.397Z,6.16
2018-01-06T00:32:03.445Z,6.11
2018-01-06T00:33:03.384Z,6.14
2018-01-06T00:34:03.379Z,6.09
2018-01-06T00:35:03.374Z,6.08
2018-01-06T00:36:03.366Z,6.14
2018-01-06T00:37:03.360Z,6.04
2018-01-06T00:38:03.354Z,6.04
2018-01-06T00:39:03.350Z,5.97
2018-01-06T00:40:03.342Z,5.99
2018-01-06T00:41:03.345Z,5.94
2018-01-06T00:42:03.330Z,6.11
2018-01-06T00:43:03.324Z,6.04
2018-01-06T00:44:03.317Z,5.99
2018-01-06T00:45:03.311Z,6.04
2018-01-06T00:46:03.306Z,6.01
2018-01-06T00:47:03.299Z,5.93
2018-01-06T00:48:03.292Z,5.93
2018-01-06T00:49:03.286Z,5.93
2018-01-06T00:50:03.281Z,5.82
2018-01-06T00:51:03.275Z,5.90
2018-01-06T00:52:03.269Z,5.89
2018-01-06T00:53:03.262Z,5.87
2018-01-06T00:54:03.257Z,5.90
2018-01-06T00:55:03.251Z,5.86
2018-01-06T00:56:03.243Z,5.84
2018-01-06T00:57:03.239Z,5.82
2018-01-06T00:58:03.232Z,5.75
2018-01-06T00:59:03.283Z,5.69
2018-01-06T01:00:03.219Z,5.66
2018-01-06T01:01:03.213Z,5.72
2018-01-06T01:02:03.208Z,5.71
2018-01-06T01:03:03.202Z,5.72
2018-01-06T01:04:03.197Z,5.72
2018-01-06T01:05:03.191Z,5.66
2018-01-06T01:06:03.183Z,5.79
2018-01-06T01:07:03.177Z,5.71
2018-01-06T01:08:03.170Z,5.76
2018-01-06T01:09:03.165Z,5.73
2018-01-06T01:10:03.159Z,5.69
2018-01-06T01:11:03.152Z,5.73
2018-01-06T01:12:03.145Z,5.75
2018-01-06T01:13:03.139Z,5.62
2018-01-06T01:14:03.134Z,5.71
2018-01-06T01:15:03.128Z,5.59
2018-01-06T01:16:03.120Z,5.57
2018-01-06T01:17:03.114Z,5.57
2018-01-06T01:18:03.108Z,5.57
2018-01-06T01:19:03.103Z,5.56
2018-01-06T01:20:03.099Z,5.47
2018-01-06T01:21:03.089Z,5.46
2018-01-06T01:22:03.088Z,5.44
2018-01-06T01:23:03.078Z,5.50
2018-01-06T01:24:03.071Z,5.48
2018-01-06T01:25:03.065Z,5.43
2018-01-06T01:26:03.059Z,5.46
2018-01-06T01:27:03.054Z,5.36
2018-01-06T01:28:03.047Z,5.32
2018-01-06T01:29:03.040Z,5.29
2018-01-06T01:30:03.035Z,5.46
2018-01-06T01:31:03.029Z,5.30
2018-01-06T01:32:03.021Z,5.43
2018-01-06T01:33:03.017Z,5.33
2018-01-06T01:34:03.010Z,5.33
2018-01-06T01:35:03.005Z,5.38
2018-01-06T01:36:02.997Z,5.33
2018-01-06T01:37:02.991Z,5.32
2018-01-06T01:38:02.985Z,5.35
2018-01-06T01:39:02.979Z,5.28
2018-01-06T01:40:02.972Z,5.23
2018-01-06T01:41:02.967Z,5.21
2018-01-06T01:42:02.960Z,5.15
2018-01-06T01:43:02.954Z,5.14
2018-01-06T01:44:02.947Z,5.18
2018-01-06T01:45:02.940Z,5.30
2018-01-06T01:46:02.934Z,5.20
2018-01-06T01:47:02.929Z,5.26
2018-01-06T01:48:02.922Z,5.23
2018-01-06T01:49:02.916Z,5.15
2018-01-06T01:50:02.910Z,5.21
2018-01-06T01:51:02.903Z,5.20
2018-01-06T01:52:02.897Z,5.26
2018-01-06T01:53:02.890Z,5.17
2018-01-06T01:54:02.885Z,5.25
2018-01-06T01:55:02.878Z,5.21
2018-01-06T01:56:02.872Z,5.23
2018-01-06T01:57:02.867Z,5.20
2018-01-06T01:58:02.859Z,5.18
2018-01-06T01:59:02.857Z,5.20
2018-01-06T02:00:02.847Z,5.14
2018-01-06T02:01:02.840Z,5.21
2018-01-06T02:02:02.834Z,5.20
2018-01-06T02:03:02.828Z,5.12
2018-01-06T02:04:02.822Z,5.02
2018-01-06T02:05:02.814Z,5.05
2018-01-06T02:06:02.809Z,5.08
2018-01-06T02:07:02.803Z,5.10
2018-01-06T02:08:02.795Z,5.11
2018-01-06T02:09:02.790Z,5.08
2018-01-06T02:10:02.784Z,5.11
2018-01-06T02:11:02.778Z,5.15
2018-01-06T02:12:02.769Z,5.18
2018-01-06T02:13:02.764Z,5.10
2018-01-06T02:14:02.758Z,5.11
2018-01-06T02:15:02.752Z,5.10
2018-01-06T02:16:02.744Z,5.10
2018-01-06T02:17:02.739Z,5.17
2018-01-06T02:18:02.732Z,5.18
2018-01-06T02:19:02.727Z,5.15
2018-01-06T02:20:02.725Z,5.21
2018-01-06T02:21:02.713Z,5.18
2018-01-06T02:22:02.707Z,5.21
2018-01-06T02:23:02.701Z,5.29
2018-01-06T02:24:02.694Z,5.25
2018-01-06T02:25:02.688Z,5.21
2018-01-06T02:26:02.683Z,5.17
2018-01-06T02:27:02.676Z,5.23
2018-01-06T02:28:02.670Z,5.20
2018-01-06T02:29:02.662Z,5.15
2018-01-06T02:30:02.656Z,5.20
2018-01-06T02:31:02.649Z,5.20
2018-01-06T02:32:02.643Z,5.26
2018-01-06T02:33:02.636Z,5.15
2018-01-06T02:34:02.630Z,5.21
2018-01-06T02:35:02.623Z,5.26
2018-01-06T02:36:02.617Z,5.23
2018-01-06T02:37:02.610Z,5.21
2018-01-06T02:38:02.604Z,5.18
2018-01-06T02:39:02.599Z,5.28
2018-01-06T02:40:02.591Z,5.32
2018-01-06T02:41:02.584Z,5.26
2018-01-06T02:42:02.577Z,5.28
2018-01-06T02:43:02.572Z,5.29
2018-01-06T02:44:02.565Z,5.26
2018-01-06T02:45:02.558Z,5.30
2018-01-06T02:46:02.555Z,5.35
2018-01-06T02:47:02.546Z,5.28
2018-01-06T02:48:02.540Z,5.28
2018-01-06T02:49:02.533Z,5.29
2018-01-06T02:50:02.528Z,5.15
2018-01-06T02:51:02.520Z,5.29
2018-01-06T02:52:02.516Z,5.20
2018-01-06T02:53:02.507Z,5.08
2018-01-06T02:54:02.501Z,5.15
2018-01-06T02:55:02.495Z,5.17
2018-01-06T02:56:02.487Z,5.12
2018-01-06T02:57:02.480Z,5.10
2018-01-06T02:58:02.476Z,5.18
2018-01-06T02:59:02.468Z,5.26
2018-01-06T03:00:02.461Z,5.29
2018-01-06T03:01:02.456Z,5.29
2018-01-06T03:02:02.450Z,5.29
2018-01-06T03:03:02.443Z,5.20
2018-01-06T03:04:02.435Z,5.18
2018-01-06T03:05:02.430Z,5.20
2018-01-06T03:06:02.423Z,5.23
2018-01-06T03:07:02.417Z,5.18
2018-01-06T03:08:02.410Z,5.20
2018-01-06T03:09:02.403Z,5.18
2018-01-06T03:10:02.404Z,5.20
2018-01-06T03:11:02.391Z,5.18
2018-01-06T03:12:02.384Z,5.25
2018-01-06T03:13:02.377Z,5.25
2018-01-06T03:14:02.371Z,5.30
2018-01-06T03:15:02.364Z,5.21
2018-01-06T03:16:02.357Z,5.30
2018-01-06T03:17:02.353Z,5.30
2018-01-06T03:18:02.346Z,5.26
2018-01-06T03:19:02.340Z,5.18
2018-01-06T03:20:02.332Z,5.20
2018-01-06T03:21:02.326Z,5.25
2018-01-06T03:22:02.320Z,5.23
2018-01-06T03:23:02.314Z,5.14
2018-01-06T03:24:02.306Z,5.28
2018-01-06T03:25:02.300Z,5.28
2018-01-06T03:26:02.294Z,5.25
2018-01-06T03:27:02.286Z,5.23
2018-01-06T03:28:02.338Z,5.18
2018-01-06T03:29:02.273Z,5.17
2018-01-06T03:30:02.269Z,5.26
2018-01-06T03:31:02.262Z,5.20
2018-01-06T03:32:02.254Z,5.18
2018-01-06T03:33:02.247Z,5.17
2018-01-06T03:34:02.241Z,5.25
2018-01-06T03:35:02.237Z,5.21
2018-01-06T03:36:02.228Z,5.15
2018-01-06T03:37:02.221Z,5.18
2018-01-06T03:38:02.215Z,5.15
2018-01-06T03:39:02.209Z,5.15
2018-01-06T03:40:02.202Z,5.17
2018-01-06T03:41:02.197Z,5.17
2018-01-06T03:42:02.190Z,5.18
2018-01-06T03:43:02.183Z,5.25
2018-01-06T03:44:02.175Z,5.12
2018-01-06T03:45:02.171Z,5.15
2018-01-06T03:46:02.164Z,5.12
2018-01-06T03:47:02.157Z,5.11
2018-01-06T03:48:02.149Z,5.10
2018-01-06T03:49:02.143Z,5.12
2018-01-06T03:50:02.137Z,5.08
2018-01-06T03:51:02.131Z,5.15
2018-01-06T03:52:02.124Z,5.12
2018-01-06T03:53:02.117Z,5.12
2018-01-06T03:54:02.111Z,5.11
2018-01-06T03:55:02.105Z,5.10
2018-01-06T03:56:02.097Z,5.14
2018-01-06T03:57:02.090Z,5.17
2018-01-06T03:58:02.085Z,5.07
2018-01-06T03:59:02.077Z,5.11
2018-01-06T04:00:02.070Z,5.10
2018-01-06T04:01:02.065Z,5.00
2018-01-06T04:02:02.059Z,4.97
2018-01-06T04:03:02.053Z,5.02
2018-01-06T04:04:02.045Z,5.00
2018-01-06T04:05:02.039Z,4.99
2018-01-06T04:06:02.032Z,4.99
2018-01-06T04:07:02.026Z,4.96
2018-01-06T04:08:02.020Z,4.99
2018-01-06T04:09:02.012Z,5.00
2018-01-06T04:10:02.007Z,4.93
2018-01-06T04:11:02.000Z,5.04
2018-01-06T04:12:01.993Z,4.97
2018-01-06T04:13:01.987Z,4.89
2018-01-06T04:14:01.980Z,4.89
2018-01-06T04:15:01.974Z,4.92
2018-01-06T04:16:01.967Z,4.92
2018-01-06T04:17:01.962Z,4.90
2018-01-06T04:18:01.954Z,4.84
2018-01-06T04:19:01.948Z,4.82
2018-01-06T04:20:01.939Z,4.84
2018-01-06T04:21:01.934Z,4.80
2018-01-06T04:22:01.927Z,4.75
2018-01-06T04:23:01.921Z,4.93
2018-01-06T04:24:01.914Z,4.86
2018-01-06T04:25:01.908Z,4.90
2018-01-06T04:26:01.902Z,4.92
2018-01-06T04:27:01.896Z,4.96
2018-01-06T04:28:01.889Z,5.02
2018-01-06T04:29:01.882Z,5.15
2018-01-06T04:30:01.876Z,5.12
2018-01-06T04:31:01.870Z,5.11
2018-01-06T04:32:01.901Z,5.12
2018-01-06T04:33:01.856Z,5.11
2018-01-06T04:34:01.850Z,5.11
2018-01-06T04:35:01.844Z,5.11
2018-01-06T04:36:01.837Z,4.99
2018-01-06T04:37:01.830Z,5.10
2018-01-06T04:38:01.825Z,5.05
2018-01-06T04:39:01.818Z,5.14
2018-01-06T04:40:01.811Z,5.11
2018-01-06T04:41:01.805Z,5.15
2018-01-06T04:42:01.799Z,5.07
2018-01-06T04:43:01.793Z,5.08
2018-01-06T04:44:01.785Z,5.05
2018-01-06T04:45:01.779Z,5.04
2018-01-06T04:46:01.774Z,4.92
2018-01-06T04:47:01.766Z,4.93
2018-01-06T04:48:01.759Z,4.87
2018-01-06T04:49:01.753Z,4.84
2018-01-06T04:50:01.747Z,4.84
2018-01-06T04:51:01.741Z,4.94
2018-01-06T04:52:01.734Z,4.78
2018-01-06T04:53:01.728Z,4.86
2018-01-06T04:54:01.721Z,4.82
2018-01-06T04:55:01.714Z,4.74
2018-01-06T04:56:01.708Z,4.75
2018-01-06T04:57:01.702Z,4.77
2018-01-06T04:58:01.695Z,4.78
2018-01-06T04:59:01.689Z,4.68
2018-01-06T05:00:01.682Z,4.82
2018-01-06T05:01:01.676Z,4.77
2018-01-06T05:02:01.670Z,4.74
2018-01-06T05:03:01.663Z,4.63
2018-01-06T05:04:01.656Z,4.62
2018-01-06T05:05:01.650Z,4.67
2018-01-06T05:06:01.643Z,4.67
2018-01-06T05:07:01.638Z,4.59
2018-01-06T05:08:01.630Z,4.67
2018-01-06T05:09:01.624Z,4.62
2018-01-06T05:10:01.618Z,4.62
2018-01-06T05:11:01.611Z,4.73
2018-01-06T05:12:01.605Z,4.66
2018-01-06T05:13:01.597Z,4.71
2018-01-06T05:14:01.592Z,4.63
2018-01-06T05:15:01.585Z,4.67
2018-01-06T05:16:01.578Z,4.63
2018-01-06T05:17:01.573Z,4.62
2018-01-06T05:18:01.566Z,4.67
2018-01-06T05:19:01.561Z,4.70
2018-01-06T05:20:01.553Z,4.62
2018-01-06T05:21:01.547Z,4.74
2018-01-06T05:22:01.544Z,4.62
2018-01-06T05:23:01.536Z,4.63
2018-01-06T05:24:01.529Z,4.73
2018-01-06T05:25:01.523Z,4.80
2018-01-06T05:26:01.519Z,4.78
2018-01-06T05:27:01.511Z,4.86
2018-01-06T05:28:01.504Z,4.82
2018-01-06T05:29:01.498Z,4.86
2018-01-06T05:30:01.492Z,4.82
2018-01-06T05:31:01.486Z,4.73
2018-01-06T05:32:01.480Z,4.87
2018-01-06T05:33:01.475Z,4.74
2018-01-06T05:34:01.467Z,4.77
2018-01-06T05:35:01.462Z,4.80
2018-01-06T05:36:01.455Z,4.71
2018-01-06T05:37:01.449Z,4.86
2018-01-06T05:38:01.444Z,4.71
2018-01-06T05:39:01.440Z,4.78
2018-01-06T05:40:01.430Z,4.82
2018-01-06T05:41:01.424Z,4.77
2018-01-06T05:42:01.418Z,4.75
2018-01-06T05:43:01.412Z,4.68
2018-01-06T05:44:01.406Z,4.80
2018-01-06T05:45:01.400Z,4.78
2018-01-06T05:46:01.394Z,4.80
2018-01-06T05:47:01.388Z,4.86
2018-01-06T05:48:01.380Z,4.89
2018-01-06T05:49:01.376Z,4.94
2018-01-06T05:50:01.369Z,5.05
2018-01-06T05:51:01.364Z,5.02
2018-01-06T05:52:01.357Z,5.10
2018-01-06T05:53:01.351Z,5.18
2018-01-06T05:54:01.346Z,5.12
2018-01-06T05:55:01.341Z,5.17
2018-01-06T05:56:01.333Z,5.14
2018-01-06T05:57:01.327Z,5.32
2018-01-06T05:58:01.321Z,5.33
2018-01-06T05:59:01.316Z,5.28
2018-01-06T06:00:01.310Z,5.44
2018-01-06T06:01:01.303Z,5.48
2018-01-06T06:02:01.298Z,5.47
2018-01-06T06:03:01.292Z,5.47
2018-01-06T06:04:01.287Z,5.48
2018-01-06T06:05:01.279Z,5.62
2018-01-06T06:06:01.273Z,5.50
2018-01-06T06:07:01.267Z,5.54
2018-01-06T06:08:01.260Z,5.64
2018-01-06T06:09:01.256Z,5.61
2018-01-06T06:10:01.248Z,5.61
2018-01-06T06:11:01.242Z,5.61
2018-01-06T06:12:01.235Z,5.59
2018-01-06T06:13:01.230Z,5.64
2018-01-06T06:14:01.224Z,5.64
2018-01-06T06:15:01.218Z,5.53
2018-01-06T06:16:01.212Z,5.56
2018-01-06T06:17:01.206Z,5.53
2018-01-06T06:18:01.200Z,5.48
2018-01-06T06:19:01.194Z,5.50
2018-01-06T06:20:01.188Z,5.39
2018-01-06T06:21:01.182Z,5.47
2018-01-06T06:22:01.178Z,5.38
2018-01-06T06:23:01.171Z,5.33
2018-01-06T06:24:01.164Z,5.36
2018-01-06T06:25:01.159Z,5.29
2018-01-06T06:26:01.152Z,5.25
2018-01-06T06:27:01.148Z,5.18
2018-01-06T06:28:01.140Z,5.18
2018-01-06T06:29:01.135Z,5.28
2018-01-06T06:30:01.129Z,5.17
2018-01-06T06:31:01.123Z,5.25
2018-01-06T06:32:01.115Z,5.25
2018-01-06T06:33:01.110Z,5.17
2018-01-06T06:34:01.104Z,5.12
2018-01-06T06:35:01.098Z,5.10
2018-01-06T06:36:01.092Z,5.10
2018-01-06T06:37:01.088Z,5.12
2018-01-06T06:38:01.082Z,5.12
2018-01-06T06:39:01.076Z,5.17
2018-01-06T06:40:01.069Z,5.15
2018-01-06T06:41:01.070Z,5.10
2018-01-06T06:42:01.057Z,5.15
2018-01-06T06:43:01.053Z,5.12
2018-01-06T06:44:01.045Z,5.14
2018-01-06T06:45:01.041Z,5.15
2018-01-06T06:46:01.036Z,5.07
2018-01-06T06:47:01.029Z,5.10
2018-01-06T06:48:01.023Z,5.11
2018-01-06T06:49:01.017Z,5.21
2018-01-06T06:50:01.011Z,5.14
2018-01-06T06:51:01.010Z,5.20
2018-01-06T06:52:01.000Z,5.18
2018-01-06T06:53:00.993Z,5.18
2018-01-06T06:54:00.987Z,5.18
2018-01-06T06:55:00.982Z,5.18
2018-01-06T06:56:00.978Z,5.14
2018-01-06T06:57:00.971Z,5.20
2018-01-06T06:58:00.965Z,5.17
2018-01-06T06:59:00.959Z,5.20
2018-01-06T07:00:00.953Z,5.20
2018-01-06T07:01:00.948Z,5.14
2018-01-06T07:02:00.943Z,5.17
2018-01-06T07:03:00.937Z,5.12
2018-01-06T07:04:00.930Z,5.20
2018-01-06T07:05:00.925Z,5.20
2018-01-06T07:06:00.919Z,5.26
2018-01-06T07:07:00.913Z,5.12
2018-01-06T07:08:00.908Z,5.26
2018-01-06T07:09:00.902Z,5.32
2018-01-06T07:10:00.899Z,5.33
2018-01-06T07:11:00.894Z,5.33
2018-01-06T07:12:00.885Z,5.32
2018-01-06T07:13:00.879Z,5.23
2018-01-06T07:14:00.874Z,5.30
2018-01-06T07:15:00.869Z,5.36
2018-01-06T07:16:00.862Z,5.32
2018-01-06T07:17:00.857Z,5.36
2018-01-06T07:18:00.851Z,5.35
2018-01-06T07:19:00.846Z,5.30
2018-01-06T07:20:00.839Z,5.35
2018-01-06T07:21:00.833Z,5.30
2018-01-06T07:22:00.829Z,5.38
2018-01-06T07:23:00.823Z,5.33
2018-01-06T07:24:00.819Z,5.30
2018-01-06T07:25:00.811Z,5.35
2018-01-06T07:26:00.806Z,5.36
2018-01-06T07:27:00.801Z,5.36
2018-01-06T07:28:00.798Z,5.35
2018-01-06T07:29:00.789Z,5.33
2018-01-06T07:30:00.784Z,5.35
2018-01-06T07:31:00.778Z,5.33
2018-01-06T07:32:00.772Z,5.29
2018-01-06T07:33:00.767Z,5.28
2018-01-06T07:34:00.761Z,5.29
2018-01-06T07:35:00.756Z,5.29
2018-01-06T07:36:00.749Z,5.18
2018-01-06T07:37:00.747Z,5.26
2018-01-06T07:38:00.739Z,5.17
2018-01-06T07:39:00.733Z,5.18
2018-01-06T07:40:00.728Z,5.17
2018-01-06T07:41:00.722Z,5.14
2018-01-06T07:42:00.718Z,5.10
2018-01-06T07:43:00.710Z,5.07
2018-01-06T07:44:00.704Z,5.04
2018-01-06T07:45:00.698Z,4.99
2018-01-06T07:46:00.693Z,4.96
2018-01-06T07:47:00.687Z,4.96
2018-01-06T07:48:00.680Z,4.93
2018-01-06T07:49:00.676Z,4.92
2018-01-06T07:50:00.670Z,4.90
2018-01-06T07:51:00.664Z,4.75
2018-01-06T07:52:00.658Z,4.84
2018-01-06T07:53:00.653Z,4.75
2018-01-06T07:54:00.647Z,4.74
2018-01-06T07:55:00.642Z,4.78
2018-01-06T07:56:00.635Z,4.77
2018-01-06T07:57:00.629Z,4.66
2018-01-06T07:58:00.624Z,4.67
2018-01-06T07:59:00.619Z,4.75
2018-01-06T08:00:00.612Z,4.86
2018-01-06T08:01:00.607Z,4.75
2018-01-06T08:02:00.600Z,4.75
2018-01-06T08:03:00.594Z,4.73
2018-01-06T08:04:00.589Z,4.82
2018-01-06T08:05:00.583Z,4.73
2018-01-06T08:06:00.578Z,4.80
2018-01-06T08:07:00.572Z,4.84
2018-01-06T08:08:00.566Z,4.71
2018-01-06T08:09:00.561Z,4.70
2018-01-06T08:10:00.554Z,4.71
2018-01-06T08:11:00.549Z,4.70
2018-01-06T08:12:00.543Z,4.67
2018-01-06T08:13:00.537Z,4.74
2018-01-06T08:14:00.531Z,4.80
2018-01-06T08:15:00.526Z,4.80
2018-01-06T08:16:00.519Z,4.78
2018-01-06T08:17:00.513Z,4.62
2018-01-06T08:18:00.511Z,4.74
2018-01-06T08:19:00.503Z,4.80
2018-01-06T08:20:00.496Z,4.67
2018-01-06T08:21:00.491Z,4.71
2018-01-06T08:22:00.485Z,4.70
2018-01-06T08:23:00.480Z,4.67
2018-01-06T08:24:00.473Z,4.74
2018-01-06T08:25:00.467Z,4.68
2018-01-06T08:26:00.461Z,4.80
2018-01-06T08:27:00.456Z,4.86
2018-01-06T08:28:00.449Z,4.74
2018-01-06T08:29:00.443Z,4.70
2018-01-06T08:30:00.441Z,4.78
2018-01-06T08:31:00.432Z,4.80
2018-01-06T08:32:00.426Z,4.67
2018-01-06T08:33:00.421Z,4.66
2018-01-06T08:34:00.414Z,4.70
2018-01-06T08:35:00.409Z,4.82
2018-01-06T08:36:00.405Z,4.77
2018-01-06T08:37:00.400Z,4.75
2018-01-06T08:38:00.390Z,4.77
2018-01-06T08:39:00.385Z,4.78
2018-01-06T08:40:00.379Z,4.75
2018-01-06T08:41:00.380Z,4.82
2018-01-06T08:42:00.367Z,4.75
2018-01-06T08:43:00.360Z,4.74
2018-01-06T08:44:00.355Z,4.75
2018-01-06T08:45:00.348Z,4.75
2018-01-06T08:46:00.344Z,4.67
2018-01-06T08:47:00.342Z,4.82
2018-01-06T08:48:00.331Z,4.75
2018-01-06T08:49:00.325Z,4.68
2018-01-06T08:50:00.320Z,4.66
2018-01-06T08:51:00.314Z,4.82
2018-01-06T08:52:00.307Z,4.82
2018-01-06T08:53:00.302Z,4.80
2018-01-06T08:54:00.299Z,4.82
2018-01-06T08:55:00.290Z,4.71
2018-01-06T08:56:00.284Z,4.82
2018-01-06T08:57:00.277Z,4.93
2018-01-06T08:58:00.272Z,4.90
2018-01-06T08:59:00.266Z,4.89
2018-01-06T09:00:00.259Z,4.89
2018-01-06T09:01:00.254Z,4.86
2018-01-06T09:02:00.249Z,4.90
2018-01-06T09:03:00.247Z,4.97
2018-01-06T09:04:00.237Z,4.99
2018-01-06T09:05:00.230Z,4.96
2018-01-06T09:06:00.225Z,4.89
2018-01-06T09:07:00.219Z,4.99
2018-01-06T09:08:00.213Z,4.87
2018-01-06T09:09:00.207Z,4.87
2018-01-06T09:10:00.206Z,4.87
2018-01-06T09:11:00.253Z,4.90
2018-01-06T09:12:00.189Z,4.92
2018-01-06T09:13:00.184Z,4.96
2018-01-06T09:14:00.178Z,4.89
2018-01-06T09:15:00.173Z,4.71
2018-01-06T09:16:00.166Z,4.84
2018-01-06T09:17:00.161Z,4.75
2018-01-06T09:18:00.154Z,4.87
2018-01-06T09:19:00.149Z,4.71
2018-01-06T09:20:00.144Z,4.74
2018-01-06T09:21:00.151Z,4.78
2018-01-06T09:22:00.131Z,4.77
2018-01-06T09:23:00.124Z,4.74
2018-01-06T09:24:00.118Z,4.89
2018-01-06T09:25:00.114Z,4.89
2018-01-06T09:26:00.108Z,4.94
2018-01-06T09:27:00.105Z,4.94
2018-01-06T09:28:00.136Z,4.96
2018-01-06T09:29:00.091Z,5.00
2018-01-06T09:30:00.092Z,5.11
2018-01-06T09:31:00.079Z,5.20
2018-01-06T09:32:00.073Z,5.28
2018-01-06T09:33:00.067Z,5.28
2018-01-06T09:34:00.062Z,5.25
2018-01-06T09:35:00.057Z,5.15
2018-01-06T09:36:00.052Z,5.15
2018-01-06T09:37:00.045Z,5.20
2018-01-06T09:38:00.041Z,5.15
2018-01-06T09:39:00.035Z,5.15
2018-01-06T09:40:00.032Z,5.21
2018-01-06T09:41:00.026Z,5.36
2018-01-06T09:42:00.022Z,5.35
2018-01-06T09:43:00.013Z,5.47
2018-01-06T09:44:00.005Z,5.44
2018-01-06T09:44:59.999Z,5.51
2018-01-06T09:45:59.994Z,5.65
2018-01-06T09:46:59.988Z,5.62
2018-01-06T09:47:59.982Z,5.65
2018-01-06T09:48:59.976Z,5.62
2018-01-06T09:49:59.971Z,5.61
2018-01-06T09:50:59.966Z,5.66
2018-01-06T09:51:59.959Z,5.64
2018-01-06T09:52:59.953Z,5.83
2018-01-06T09:53:59.949Z,5.89
2018-01-06T09:54:59.944Z,5.87
2018-01-06T09:55:59.938Z,6.05
2018-01-06T09:56:59.933Z,6.14
2018-01-06T09:57:59.927Z,6.16
2018-01-06T09:58:59.922Z,6.28
2018-01-06T09:59:59.921Z,6.39
2018-01-06T10:00:59.912Z,6.45
2018-01-06T10:01:59.906Z,6.51
2018-01-06T10:02:59.901Z,6.46
2018-01-06T10:03:59.897Z,6.57
2018-01-06T10:04:59.891Z,6.52
2018-01-06T10:05:59.886Z,6.49
2018-01-06T10:06:59.881Z,6.46
2018-01-06T10:07:59.878Z,6.42
2018-01-06T10:08:59.873Z,6.41
2018-01-06T10:09:59.866Z,6.41
2018-01-06T10:10:59.861Z,6.39
2018-01-06T10:11:59.855Z,6.36
2018-01-06T10:12:59.851Z,6.35
2018-01-06T10:13:59.847Z,6.48
2018-01-06T10:14:59.841Z,6.52
2018-01-06T10:15:59.836Z,6.56
2018-01-06T10:16:59.834Z,6.56
2018-01-06T10:17:59.827Z,6.63
2018-01-06T10:18:59.822Z,6.66
2018-01-06T10:19:59.816Z,6.77
2018-01-06T10:20:59.818Z,6.72
2018-01-06T10:21:59.808Z,6.64
2018-01-06T10:22:59.803Z,6.64
2018-01-06T10:23:59.798Z,6.69
2018-01-06T10:24:59.798Z,6.59
2018-01-06T10:25:59.789Z,6.59
2018-01-06T10:26:59.784Z,6.66
2018-01-06T10:27:59.779Z,6.74
2018-01-06T10:28:59.774Z,6.69
2018-01-06T10:29:59.770Z,6.69
2018-01-06T10:30:59.765Z,6.67
2018-01-06T10:31:59.760Z,6.74
2018-01-06T10:32:59.755Z,6.64
2018-01-06T10:33:59.751Z,6.59
2018-01-06T10:34:59.747Z,6.67
2018-01-06T10:35:59.742Z,6.78
2018-01-06T10:36:59.739Z,6.70
2018-01-06T10:37:59.732Z,6.67
2018-01-06T10:38:59.728Z,6.69
2018-01-06T10:39:59.723Z,6.69
2018-01-06T10:40:59.718Z,6.66
2018-01-06T10:41:59.714Z,6.69
2018-01-06T10:42:59.711Z,6.74
2018-01-06T10:43:59.704Z,6.78
2018-01-06T10:44:59.699Z,6.81
2018-01-06T10:45:59.695Z,6.79
2018-01-06T10:46:59.690Z,6.70
2018-01-06T10:47:59.685Z,6.74
2018-01-06T10:48:59.698Z,6.84
2018-01-06T10:49:59.677Z,6.87
2018-01-06T10:50:59.673Z,6.92
2018-01-06T10:51:59.670Z,6.93
2018-01-06T10:52:59.664Z,7.03
2018-01-06T10:53:59.658Z,7.07
2018-01-06T10:54:59.653Z,6.88
2018-01-06T10:55:59.648Z,6.89
2018-01-06T10:56:59.644Z,6.84
2018-01-06T10:57:59.642Z,6.81
2018-01-06T10:58:59.637Z,6.84
2018-01-06T10:59:59.631Z,6.93
2018-01-06T11:00:59.627Z,6.95
2018-01-06T11:01:59.623Z,6.96
2018-01-06T11:02:59.618Z,6.93
2018-01-06T11:03:59.667Z,6.95
2018-01-06T11:04:59.608Z,6.96
2018-01-06T11:05:59.605Z,7.00
2018-01-06T11:06:59.601Z,7.03
2018-01-06T11:07:59.595Z,7.06
2018-01-06T11:08:59.592Z,7.03
2018-01-06T11:09:59.587Z,7.02
2018-01-06T11:10:59.582Z,6.99
2018-01-06T11:11:59.578Z,7.07
2018-01-06T11:12:59.572Z,7.07
2018-01-06T11:13:59.569Z,7.05
2018-01-06T11:14:59.565Z,7.03
2018-01-06T11:15:59.560Z,6.92
2018-01-06T11:16:59.556Z,6.89
2018-01-06T11:17:59.551Z,7.07
2018-01-06T11:18:59.582Z,7.05
2018-01-06T11:19:59.542Z,7.03
2018-01-06T11:20:59.538Z,7.20
2018-01-06T11:21:59.534Z,7.11
2018-01-06T11:22:59.530Z,7.21
2018-01-06T11:23:59.524Z,7.18
2018-01-06T11:24:59.521Z,7.15
2018-01-06T11:25:59.516Z,7.02
2018-01-06T11:26:59.512Z,7.07
2018-01-06T11:27:59.506Z,7.13
2018-01-06T11:28:59.503Z,7.05
2018-01-06T11:29:59.498Z,7.15
2018-01-06T11:30:59.494Z,7.10
2018-01-06T11:31:59.490Z,7.06
2018-01-06T11:32:59.485Z,7.05
2018-01-06T11:33:59.482Z,7.05
2018-01-06T11:34:59.482Z,6.99
2018-01-06T11:35:59.472Z,7.00
2018-01-06T11:36:59.469Z,7.05
2018-01-06T11:37:59.464Z,7.03
2018-01-06T11:38:59.460Z,7.20
2018-01-06T11:39:59.456Z,7.20
2018-01-06T11:40:59.451Z,7.13
2018-01-06T11:41:59.447Z,7.21
2018-01-06T11:42:59.478Z,7.24
2018-01-06T11:43:59.438Z,7.21
2018-01-06T11:44:59.434Z,7.29
2018-01-06T11:45:59.429Z,7.25
2018-01-06T11:46:59.431Z,7.23
2018-01-06T11:47:59.420Z,7.24
2018-01-06T11:48:59.417Z,7.31
2018-01-06T11:49:59.413Z,7.33
2018-01-06T11:50:59.410Z,7.40
2018-01-06T11:51:59.404Z,7.42
2018-01-06T11:52:59.401Z,7.47
2018-01-06T11:53:59.395Z,7.39
2018-01-06T11:54:59.392Z,7.39
2018-01-06T11:55:59.386Z,7.31
2018-01-06T11:56:59.384Z,7.32
2018-01-06T11:57:59.379Z,7.38
2018-01-06T11:58:59.376Z,7.33
2018-01-06T11:59:59.371Z,7.45
2018-01-06T12:00:59.367Z,7.36
2018-01-06T12:01:59.362Z,7.40
2018-01-06T12:02:59.359Z,7.32
2018-01-06T12:03:59.354Z,7.32
2018-01-06T12:04:59.365Z,7.35
2018-01-06T12:05:59.346Z,7.45
2018-01-06T12:06:59.342Z,7.40
2018-01-06T12:07:59.337Z,7.42
2018-01-06T12:08:59.333Z,7.45
2018-01-06T12:09:59.329Z,7.45
2018-01-06T12:10:59.327Z,7.50
2018-01-06T12:11:59.321Z,7.50
2018-01-06T12:12:59.316Z,7.53
2018-01-06T12:13:59.371Z,7.48
2018-01-06T12:14:59.309Z,7.53
2018-01-06T12:15:59.303Z,7.54
2018-01-06T12:16:59.301Z,7.54
2018-01-06T12:17:59.296Z,7.53
2018-01-06T12:18:59.292Z,7.42
2018-01-06T12:19:59.290Z,7.43
2018-01-06T12:20:59.284Z,7.60
2018-01-06T12:21:59.280Z,7.66
2018-01-06T12:22:59.276Z,7.57
2018-01-06T12:23:59.271Z,7.48
2018-01-06T12:24:59.267Z,7.38
2018-01-06T12:25:59.263Z,7.36
2018-01-06T12:26:59.262Z,7.38
2018-01-06T12:27:59.254Z,7.24
2018-01-06T12:28:59.250Z,7.29
2018-01-06T12:29:59.244Z,7.29
2018-01-06T12:30:59.242Z,7.18
2018-01-06T12:31:59.236Z,7.17
2018-01-06T12:32:59.232Z,7.18
2018-01-06T12:33:59.228Z,7.21
2018-01-06T12:34:59.266Z,7.18
2018-01-06T12:35:59.220Z,7.25
2018-01-06T12:36:59.245Z,7.23
2018-01-06T12:37:59.211Z,7.18
2018-01-06T12:38:59.207Z,7.23
2018-01-06T12:39:59.202Z,7.21
2018-01-06T12:40:59.197Z,7.24
2018-01-06T12:41:59.193Z,7.28
2018-01-06T12:42:59.189Z,7.32
2018-01-06T12:43:59.184Z,7.36
2018-01-06T12:44:59.181Z,7.35
2018-01-06T12:45:59.176Z,7.42
2018-01-06T12:46:59.172Z,7.38
2018-01-06T12:47:59.173Z,7.32
2018-01-06T12:48:59.163Z,7.25
2018-01-06T12:49:59.157Z,7.25
2018-01-06T12:50:59.155Z,7.24
2018-01-06T12:51:59.149Z,7.28
2018-01-06T12:52:59.144Z,7.24
2018-01-06T12:53:59.141Z,7.20
2018-01-06T12:54:59.136Z,7.20
2018-01-06T12:55:59.131Z,7.18
2018-01-06T12:56:59.127Z,7.15
2018-01-06T12:57:59.122Z,7.14
2018-01-06T12:58:59.119Z,7.20
2018-01-06T12:59:59.114Z,7.21
2018-01-06T13:00:59.110Z,7.13
2018-01-06T13:01:59.110Z,7.06
2018-01-06T13:02:59.101Z,7.18
2018-01-06T13:03:59.095Z,7.15
2018-01-06T13:04:59.091Z,7.18
2018-01-06T13:05:59.087Z,7.15
2018-01-06T13:06:59.085Z,7.20
2018-01-06T13:07:59.077Z,7.13
2018-01-06T13:08:59.073Z,7.20
2018-01-06T13:09:59.070Z,7.13
2018-01-06T13:10:59.064Z,7.17
2018-01-06T13:11:59.059Z,7.21
2018-01-06T13:12:59.055Z,7.17
2018-01-06T13:13:59.051Z,7.23
2018-01-06T13:14:59.047Z,7.18
2018-01-06T13:15:59.041Z,7.11
2018-01-06T13:16:59.037Z,7.07
2018-01-06T13:17:59.032Z,7.21